Haifa, Israel

10:16 PM IST on martie 03, 2015 (GMT +0200)
Haifa | Change Station
CLOSE
Current Station
Staţie meteo personală
Location: Haifa, -
Elevation: 676 ft
Nearby Weather Stations

Elev 676 ft 32.81 °N, 34.99 °E | Updated 12 seconds ago

Scattered Clouds
Nori risipiţi
57.1 °F
Feels Like 57.1 °F
N
4.0
Vânt variabil Vânt from nord
Gusts 6.0 mph

astăzi
High -- | Low -- °F
--% Chance of Precip.
Ieri
High -- | Low -- °F
Precip. -- inch
6:05 AM 5:38 PM
Lună în creştere, 97% visible
Presiunea 30.12 inch
Vizibilitatea 6.2 mile
Nori Nori risipiţi 3000 ft
Nori risipiţi 5000 ft
Punctul de rouă 53 °F
Umiditatea 87%
Precipitaţii 0.00 inch
Adâncimea zăpezii Not available.
UV 0.0 out of 12
Pollen Not available.
Calitatea aerului Not available.
Flu Activity Not available.
METAR LLHA 031850Z 23005KT 9999 SCT030 SCT050 16/11 Q1020

More Conditions Fewer Conditions

Presiunea 30.12 inch
Vizibilitatea 6.2 mile
Nori Nori risipiţi 3000 ft
Nori risipiţi 5000 ft
Punctul de rouă 53 °F
Umiditatea 87%
Precipitaţii 0.00 inch
Adâncimea zăpezii Not available.
UV 0.0 out of 12
Pollen Not available.
Calitatea aerului Not available.
Flu Activity Not available.
METAR LLHA 031850Z 23005KT 9999 SCT030 SCT050 16/11 Q1020

More Conditions Fewer Conditions

10-Day Weather Forecast

Almanac

Astronomie

Mar. 03, 2015 Răsărit Apus
Timpul Actual
Crepusculul Civil
Crepusculul nautic
Răsărit Astronomic
Luna
Durata zilei lumină
Lungimea zilei
Tomorrow will be .
, % of the Moon is Illuminated

Extremele de azi

Country Highs Country Lows

Community

WunderPhotos

Upload Photos

1,802,225 photos uploaded!

WunderBlogs® & News

Nearby

Calitatea aerului

  Calitatea aerului Index de calitate a aerului Poluat
Not available.

Adâncimea zapezii

Station Depth Elevation

Earthquake Activity

Oraş Distance Mag. Time & Date
Minimum magnitude displayed is 2.5.

Coastal Water Temperatures

Locul Temperatura

Nearby Weather Stations